Terminal Aerodrome Forecast
Issued by NWS

Home | Current Version | Previous Version | Text Only | Print | Product List | Glossary On
Versions: 1 2 3 4 5 6 7 8 9 10 11 12 13 14 15 16 17 18 19 20 21 22 23 24 25 26 27 28 29 30 31 32 33 34 35 36
004
FTUS46 KLOX 192009 AAA
TAFLGB
TAF AMD
KLGB 192009Z 1920/2018 18008G15KT P6SM OVC014
     FM192300 20010KT P6SM BKN120
     FM200300 16006KT P6SM BKN100
     FM200900 12006KT P6SM VCSH BKN030 OVC050
     FM201100 15007KT P6SM -SHRA BKN025 OVC040
     FM201500 09006KT P6SM -SHRA BKN020 OVC040=

USA.gov is the U.S. government's official web portal to all federal, state and local government web resources and services.